sensor_id;sensor_type;location;lat;lon;timestamp;P1;durP1;ratioP1;P2;durP2;ratioP2
30605;SDS011;17371;51.328;3.860;2023-06-19T00:01:56;6.00;;;3.07;;
30605;SDS011;17371;51.328;3.860;2023-06-19T00:04:22;4.13;;;2.70;;
30605;SDS011;17371;51.328;3.860;2023-06-19T00:06:47;6.78;;;2.90;;
30605;SDS011;17371;51.328;3.860;2023-06-19T00:09:12;6.30;;;2.93;;
30605;SDS011;17371;51.328;3.860;2023-06-19T00:11:38;4.23;;;2.70;;
30605;SDS011;17371;51.328;3.860;2023-06-19T00:14:05;3.80;;;2.67;;
30605;SDS011;17371;51.328;3.860;2023-06-19T00:16:30;4.22;;;2.70;;
30605;SDS011;17371;51.328;3.860;2023-06-19T00:18:56;3.93;;;2.53;;
30605;SDS011;17371;51.328;3.860;2023-06-19T00:21:21;4.40;;;2.77;;
30605;SDS011;17371;51.328;3.860;2023-06-19T00:23:46;5.85;;;3.30;;
30605;SDS011;17371;51.328;3.860;2023-06-19T00:26:12;8.17;;;3.10;;
30605;SDS011;17371;51.328;3.860;2023-06-19T00:28:37;3.90;;;2.70;;
30605;SDS011;17371;51.328;3.860;2023-06-19T00:31:04;4.17;;;2.63;;
30605;SDS011;17371;51.328;3.860;2023-06-19T00:33:29;4.03;;;2.80;;
30605;SDS011;17371;51.328;3.860;2023-06-19T00:35:55;5.27;;;2.87;;
30605;SDS011;17371;51.328;3.860;2023-06-19T00:38:20;4.03;;;2.75;;
30605;SDS011;17371;51.328;3.860;2023-06-19T00:40:45;3.97;;;2.80;;
30605;SDS011;17371;51.328;3.860;2023-06-19T00:43:11;4.53;;;3.17;;
30605;SDS011;17371;51.328;3.860;2023-06-19T00:45:36;5.00;;;3.00;;
30605;SDS011;17371;51.328;3.860;2023-06-19T00:48:03;4.17;;;2.90;;
30605;SDS011;17371;51.328;3.860;2023-06-19T00:50:29;5.28;;;2.90;;
30605;SDS011;17371;51.328;3.860;2023-06-19T00:52:55;5.78;;;3.50;;
30605;SDS011;17371;51.328;3.860;2023-06-19T00:55:20;6.13;;;3.20;;
30605;SDS011;17371;51.328;3.860;2023-06-19T00:57:46;4.75;;;3.20;;
30605;SDS011;17371;51.328;3.860;2023-06-19T01:00:12;7.53;;;3.80;;
30605;SDS011;17371;51.328;3.860;2023-06-19T01:02:38;6.68;;;3.55;;
30605;SDS011;17371;51.328;3.860;2023-06-19T01:05:05;9.95;;;4.47;;
30605;SDS011;17371;51.328;3.860;2023-06-19T01:07:31;9.02;;;4.30;;
30605;SDS011;17371;51.328;3.860;2023-06-19T01:10:01;9.23;;;4.77;;
30605;SDS011;17371;51.328;3.860;2023-06-19T01:12:30;10.52;;;5.05;;
30605;SDS011;17371;51.328;3.860;2023-06-19T01:14:59;8.98;;;4.80;;
30605;SDS011;17371;51.328;3.860;2023-06-19T01:17:26;8.10;;;4.57;;
30605;SDS011;17371;51.328;3.860;2023-06-19T01:19:52;8.73;;;5.05;;
30605;SDS011;17371;51.328;3.860;2023-06-19T01:22:25;9.20;;;4.57;;
30605;SDS011;17371;51.328;3.860;2023-06-19T01:24:51;8.15;;;4.75;;
30605;SDS011;17371;51.328;3.860;2023-06-19T01:27:16;9.50;;;3.93;;
30605;SDS011;17371;51.328;3.860;2023-06-19T01:29:42;7.13;;;4.23;;
30605;SDS011;17371;51.328;3.860;2023-06-19T01:32:08;8.13;;;4.87;;
30605;SDS011;17371;51.328;3.860;2023-06-19T01:34:38;8.55;;;4.88;;
30605;SDS011;17371;51.328;3.860;2023-06-19T01:37:03;7.77;;;5.07;;
30605;SDS011;17371;51.328;3.860;2023-06-19T01:39:30;8.00;;;4.65;;
30605;SDS011;17371;51.328;3.860;2023-06-19T01:41:57;8.43;;;5.18;;
30605;SDS011;17371;51.328;3.860;2023-06-19T01:44:23;12.17;;;5.70;;
30605;SDS011;17371;51.328;3.860;2023-06-19T01:46:49;11.32;;;6.47;;
30605;SDS011;17371;51.328;3.860;2023-06-19T01:49:15;12.38;;;6.05;;
30605;SDS011;17371;51.328;3.860;2023-06-19T01:51:40;9.33;;;5.73;;
30605;SDS011;17371;51.328;3.860;2023-06-19T01:54:05;12.83;;;6.00;;
30605;SDS011;17371;51.328;3.860;2023-06-19T01:56:32;10.43;;;6.23;;
30605;SDS011;17371;51.328;3.860;2023-06-19T01:58:58;10.90;;;6.00;;
30605;SDS011;17371;51.328;3.860;2023-06-19T02:01:23;13.07;;;7.10;;
30605;SDS011;17371;51.328;3.860;2023-06-19T02:03:48;13.32;;;6.40;;
30605;SDS011;17371;51.328;3.860;2023-06-19T02:06:14;13.00;;;6.47;;
30605;SDS011;17371;51.328;3.860;2023-06-19T02:08:39;11.80;;;6.20;;
30605;SDS011;17371;51.328;3.860;2023-06-19T02:11:05;10.27;;;4.93;;
30605;SDS011;17371;51.328;3.860;2023-06-19T02:13:31;11.43;;;4.77;;
30605;SDS011;17371;51.328;3.860;2023-06-19T02:15:57;10.13;;;4.40;;
30605;SDS011;17371;51.328;3.860;2023-06-19T02:18:22;8.23;;;4.13;;
30605;SDS011;17371;51.328;3.860;2023-06-19T02:20:47;9.67;;;4.00;;
30605;SDS011;17371;51.328;3.860;2023-06-19T02:23:13;6.88;;;3.67;;
30605;SDS011;17371;51.328;3.860;2023-06-19T02:25:38;6.57;;;3.87;;
30605;SDS011;17371;51.328;3.860;2023-06-19T02:28:04;5.67;;;3.33;;
30605;SDS011;17371;51.328;3.860;2023-06-19T02:30:31;6.57;;;3.47;;
30605;SDS011;17371;51.328;3.860;2023-06-19T02:32:56;4.88;;;2.92;;
30605;SDS011;17371;51.328;3.860;2023-06-19T02:35:21;3.33;;;2.10;;
30605;SDS011;17371;51.328;3.860;2023-06-19T02:37:47;4.50;;;2.13;;
30605;SDS011;17371;51.328;3.860;2023-06-19T02:40:13;3.80;;;2.00;;
30605;SDS011;17371;51.328;3.860;2023-06-19T02:42:38;2.40;;;1.55;;
30605;SDS011;17371;51.328;3.860;2023-06-19T02:45:04;2.77;;;1.80;;
30605;SDS011;17371;51.328;3.860;2023-06-19T02:47:31;3.70;;;2.20;;
30605;SDS011;17371;51.328;3.860;2023-06-19T02:49:57;3.57;;;1.77;;
30605;SDS011;17371;51.328;3.860;2023-06-19T02:52:22;4.75;;;2.15;;
30605;SDS011;17371;51.328;3.860;2023-06-19T02:54:48;4.40;;;2.47;;
30605;SDS011;17371;51.328;3.860;2023-06-19T02:57:13;4.97;;;2.50;;
30605;SDS011;17371;51.328;3.860;2023-06-19T02:59:38;5.47;;;2.70;;
30605;SDS011;17371;51.328;3.860;2023-06-19T03:02:04;3.53;;;2.30;;
30605;SDS011;17371;51.328;3.860;2023-06-19T03:04:31;4.82;;;2.33;;
30605;SDS011;17371;51.328;3.860;2023-06-19T03:06:56;6.43;;;2.70;;
30605;SDS011;17371;51.328;3.860;2023-06-19T03:09:22;8.23;;;3.10;;
30605;SDS011;17371;51.328;3.860;2023-06-19T03:11:47;5.27;;;3.30;;
30605;SDS011;17371;51.328;3.860;2023-06-19T03:14:12;6.93;;;4.40;;
30605;SDS011;17371;51.328;3.860;2023-06-19T03:16:38;8.57;;;4.20;;
30605;SDS011;17371;51.328;3.860;2023-06-19T03:19:03;10.43;;;3.87;;
30605;SDS011;17371;51.328;3.860;2023-06-19T03:21:30;8.40;;;4.23;;
30605;SDS011;17371;51.328;3.860;2023-06-19T03:23:55;8.13;;;4.85;;
30605;SDS011;17371;51.328;3.860;2023-06-19T03:26:21;6.93;;;4.40;;
30605;SDS011;17371;51.328;3.860;2023-06-19T03:28:46;9.00;;;4.65;;
30605;SDS011;17371;51.328;3.860;2023-06-19T03:31:12;9.87;;;4.63;;
30605;SDS011;17371;51.328;3.860;2023-06-19T03:33:37;8.23;;;4.23;;
30605;SDS011;17371;51.328;3.860;2023-06-19T03:36:03;7.97;;;4.53;;
30605;SDS011;17371;51.328;3.860;2023-06-19T03:38:30;6.35;;;4.35;;
30605;SDS011;17371;51.328;3.860;2023-06-19T03:40:55;8.98;;;4.57;;
30605;SDS011;17371;51.328;3.860;2023-06-19T03:43:21;8.50;;;4.77;;
30605;SDS011;17371;51.328;3.860;2023-06-19T03:45:46;8.80;;;5.13;;
30605;SDS011;17371;51.328;3.860;2023-06-19T03:48:11;8.10;;;4.40;;
30605;SDS011;17371;51.328;3.860;2023-06-19T03:50:37;7.90;;;4.53;;
30605;SDS011;17371;51.328;3.860;2023-06-19T03:53:02;12.63;;;5.27;;
30605;SDS011;17371;51.328;3.860;2023-06-19T03:55:29;10.77;;;5.23;;
30605;SDS011;17371;51.328;3.860;2023-06-19T03:57:55;8.73;;;5.03;;
30605;SDS011;17371;51.328;3.860;2023-06-19T04:00:20;8.10;;;4.70;;
30605;SDS011;17371;51.328;3.860;2023-06-19T04:02:45;9.07;;;5.68;;
30605;SDS011;17371;51.328;3.860;2023-06-19T04:05:11;10.55;;;6.25;;
30605;SDS011;17371;51.328;3.860;2023-06-19T04:07:36;12.60;;;6.90;;
30605;SDS011;17371;51.328;3.860;2023-06-19T04:10:02;10.63;;;6.03;;
30605;SDS011;17371;51.328;3.860;2023-06-19T04:12:29;14.68;;;7.97;;
30605;SDS011;17371;51.328;3.860;2023-06-19T04:14:54;13.82;;;7.72;;
30605;SDS011;17371;51.328;3.860;2023-06-19T04:17:20;17.50;;;7.80;;
30605;SDS011;17371;51.328;3.860;2023-06-19T04:19:45;14.43;;;7.90;;
30605;SDS011;17371;51.328;3.860;2023-06-19T04:22:10;16.57;;;7.87;;
30605;SDS011;17371;51.328;3.860;2023-06-19T04:24:36;15.97;;;8.27;;
30605;SDS011;17371;51.328;3.860;2023-06-19T04:27:01;16.63;;;8.57;;
30605;SDS011;17371;51.328;3.860;2023-06-19T04:29:28;16.30;;;9.10;;
30605;SDS011;17371;51.328;3.860;2023-06-19T04:31:53;15.90;;;9.25;;
30605;SDS011;17371;51.328;3.860;2023-06-19T04:34:19;18.20;;;10.07;;
30605;SDS011;17371;51.328;3.860;2023-06-19T04:36:44;19.33;;;10.93;;
30605;SDS011;17371;51.328;3.860;2023-06-19T04:39:09;22.97;;;10.70;;
30605;SDS011;17371;51.328;3.860;2023-06-19T04:41:35;20.40;;;10.50;;
30605;SDS011;17371;51.328;3.860;2023-06-19T04:44:00;21.83;;;10.50;;
30605;SDS011;17371;51.328;3.860;2023-06-19T04:46:27;22.70;;;11.18;;
30605;SDS011;17371;51.328;3.860;2023-06-19T04:48:52;20.70;;;9.77;;
30605;SDS011;17371;51.328;3.860;2023-06-19T04:51:18;18.55;;;9.63;;
30605;SDS011;17371;51.328;3.860;2023-06-19T04:53:43;23.50;;;10.80;;
30605;SDS011;17371;51.328;3.860;2023-06-19T04:56:08;20.13;;;10.60;;
30605;SDS011;17371;51.328;3.860;2023-06-19T04:58:34;24.17;;;10.40;;
30605;SDS011;17371;51.328;3.860;2023-06-19T05:00:59;21.03;;;9.77;;
30605;SDS011;17371;51.328;3.860;2023-06-19T05:03:26;25.00;;;10.27;;
30605;SDS011;17371;51.328;3.860;2023-06-19T05:05:51;18.67;;;9.73;;
30605;SDS011;17371;51.328;3.860;2023-06-19T05:08:17;23.20;;;10.82;;
30605;SDS011;17371;51.328;3.860;2023-06-19T05:10:42;20.23;;;10.53;;
30605;SDS011;17371;51.328;3.860;2023-06-19T05:13:07;18.97;;;10.30;;
30605;SDS011;17371;51.328;3.860;2023-06-19T05:15:33;17.73;;;9.77;;
30605;SDS011;17371;51.328;3.860;2023-06-19T05:17:58;18.97;;;9.67;;
30605;SDS011;17371;51.328;3.860;2023-06-19T05:20:25;20.25;;;9.45;;
30605;SDS011;17371;51.328;3.860;2023-06-19T05:22:50;20.73;;;10.60;;
30605;SDS011;17371;51.328;3.860;2023-06-19T05:25:16;19.30;;;10.73;;
30605;SDS011;17371;51.328;3.860;2023-06-19T05:27:41;19.20;;;9.73;;
30605;SDS011;17371;51.328;3.860;2023-06-19T05:30:07;21.20;;;11.00;;
30605;SDS011;17371;51.328;3.860;2023-06-19T05:32:33;19.90;;;9.65;;
30605;SDS011;17371;51.328;3.860;2023-06-19T05:34:58;20.77;;;10.60;;
30605;SDS011;17371;51.328;3.860;2023-06-19T05:37:25;18.33;;;9.50;;
30605;SDS011;17371;51.328;3.860;2023-06-19T05:39:50;17.85;;;9.27;;
30605;SDS011;17371;51.328;3.860;2023-06-19T05:42:16;19.03;;;10.07;;
30605;SDS011;17371;51.328;3.860;2023-06-19T05:44:41;21.57;;;9.93;;
30605;SDS011;17371;51.328;3.860;2023-06-19T05:47:07;22.17;;;9.70;;
30605;SDS011;17371;51.328;3.860;2023-06-19T05:49:32;19.65;;;9.88;;
30605;SDS011;17371;51.328;3.860;2023-06-19T05:51:57;20.57;;;9.60;;
30605;SDS011;17371;51.328;3.860;2023-06-19T05:54:24;17.40;;;9.63;;
30605;SDS011;17371;51.328;3.860;2023-06-19T05:56:49;17.95;;;9.45;;
30605;SDS011;17371;51.328;3.860;2023-06-19T05:59:15;16.20;;;9.17;;
30605;SDS011;17371;51.328;3.860;2023-06-19T06:01:40;21.53;;;9.70;;
30605;SDS011;17371;51.328;3.860;2023-06-19T06:04:06;15.57;;;8.03;;
30605;SDS011;17371;51.328;3.860;2023-06-19T06:06:31;16.13;;;9.27;;
30605;SDS011;17371;51.328;3.860;2023-06-19T06:08:56;15.80;;;8.90;;
30605;SDS011;17371;51.328;3.860;2023-06-19T06:11:23;17.37;;;8.73;;
30605;SDS011;17371;51.328;3.860;2023-06-19T06:13:48;16.23;;;9.70;;
30605;SDS011;17371;51.328;3.860;2023-06-19T06:16:14;18.40;;;9.37;;
30605;SDS011;17371;51.328;3.860;2023-06-19T06:18:39;18.30;;;8.90;;
30605;SDS011;17371;51.328;3.860;2023-06-19T06:21:05;16.20;;;8.10;;
30605;SDS011;17371;51.328;3.860;2023-06-19T06:23:30;17.07;;;9.70;;
30605;SDS011;17371;51.328;3.860;2023-06-19T06:25:55;17.92;;;8.77;;
30605;SDS011;17371;51.328;3.860;2023-06-19T06:28:22;23.02;;;9.85;;
30605;SDS011;17371;51.328;3.860;2023-06-19T06:30:47;17.00;;;8.97;;
30605;SDS011;17371;51.328;3.860;2023-06-19T06:33:13;15.45;;;8.73;;
30605;SDS011;17371;51.328;3.860;2023-06-19T06:35:38;18.30;;;9.40;;
30605;SDS011;17371;51.328;3.860;2023-06-19T06:38:04;16.80;;;8.93;;
30605;SDS011;17371;51.328;3.860;2023-06-19T06:40:29;16.77;;;8.83;;
30605;SDS011;17371;51.328;3.860;2023-06-19T06:42:54;14.68;;;8.73;;
30605;SDS011;17371;51.328;3.860;2023-06-19T06:45:21;16.67;;;8.43;;
30605;SDS011;17371;51.328;3.860;2023-06-19T06:47:47;20.83;;;8.77;;
30605;SDS011;17371;51.328;3.860;2023-06-19T06:50:12;18.07;;;8.50;;
30605;SDS011;17371;51.328;3.860;2023-06-19T06:52:37;20.63;;;8.87;;
30605;SDS011;17371;51.328;3.860;2023-06-19T06:55:03;14.97;;;8.60;;
30605;SDS011;17371;51.328;3.860;2023-06-19T06:57:29;17.95;;;8.52;;
30605;SDS011;17371;51.328;3.860;2023-06-19T06:59:54;17.27;;;9.20;;
30605;SDS011;17371;51.328;3.860;2023-06-19T07:02:21;17.03;;;8.03;;
30605;SDS011;17371;51.328;3.860;2023-06-19T07:04:46;16.63;;;8.63;;
30605;SDS011;17371;51.328;3.860;2023-06-19T07:07:12;17.40;;;7.23;;
30605;SDS011;17371;51.328;3.860;2023-06-19T07:09:37;14.50;;;7.93;;
30605;SDS011;17371;51.328;3.860;2023-06-19T07:12:03;15.52;;;7.95;;
30605;SDS011;17371;51.328;3.860;2023-06-19T07:14:28;15.68;;;8.23;;
30605;SDS011;17371;51.328;3.860;2023-06-19T07:16:54;14.05;;;7.93;;
30605;SDS011;17371;51.328;3.860;2023-06-19T07:19:21;16.80;;;7.73;;
30605;SDS011;17371;51.328;3.860;2023-06-19T07:21:46;13.68;;;7.80;;
30605;SDS011;17371;51.328;3.860;2023-06-19T07:24:11;16.00;;;8.10;;
30605;SDS011;17371;51.328;3.860;2023-06-19T07:26:37;15.70;;;7.97;;
30605;SDS011;17371;51.328;3.860;2023-06-19T07:29:02;17.27;;;8.43;;
30605;SDS011;17371;51.328;3.860;2023-06-19T07:31:28;18.80;;;8.75;;
30605;SDS011;17371;51.328;3.860;2023-06-19T07:33:53;16.07;;;8.20;;
30605;SDS011;17371;51.328;3.860;2023-06-19T07:36:20;15.90;;;8.47;;
30605;SDS011;17371;51.328;3.860;2023-06-19T07:38:45;15.50;;;8.15;;
30605;SDS011;17371;51.328;3.860;2023-06-19T07:41:11;14.67;;;7.90;;
30605;SDS011;17371;51.328;3.860;2023-06-19T07:43:36;14.98;;;8.27;;
30605;SDS011;17371;51.328;3.860;2023-06-19T07:46:02;13.65;;;8.18;;
30605;SDS011;17371;51.328;3.860;2023-06-19T07:48:27;15.23;;;8.33;;
30605;SDS011;17371;51.328;3.860;2023-06-19T07:50:53;17.15;;;8.57;;
30605;SDS011;17371;51.328;3.860;2023-06-19T07:53:20;15.67;;;8.47;;
30605;SDS011;17371;51.328;3.860;2023-06-19T07:55:45;15.35;;;8.40;;
30605;SDS011;17371;51.328;3.860;2023-06-19T07:58:11;14.77;;;8.30;;
30605;SDS011;17371;51.328;3.860;2023-06-19T08:00:36;17.37;;;8.50;;
30605;SDS011;17371;51.328;3.860;2023-06-19T08:03:02;17.73;;;8.18;;
30605;SDS011;17371;51.328;3.860;2023-06-19T08:05:27;16.97;;;8.03;;
30605;SDS011;17371;51.328;3.860;2023-06-19T08:07:53;17.87;;;8.80;;
30605;SDS011;17371;51.328;3.860;2023-06-19T08:10:19;16.87;;;8.33;;
30605;SDS011;17371;51.328;3.860;2023-06-19T08:12:45;13.13;;;7.55;;
30605;SDS011;17371;51.328;3.860;2023-06-19T08:15:10;15.23;;;8.57;;
30605;SDS011;17371;51.328;3.860;2023-06-19T08:17:36;15.20;;;8.57;;
30605;SDS011;17371;51.328;3.860;2023-06-19T08:20:02;14.73;;;7.90;;
30605;SDS011;17371;51.328;3.860;2023-06-19T08:22:28;15.13;;;8.45;;
30605;SDS011;17371;51.328;3.860;2023-06-19T08:24:53;20.27;;;7.60;;
30605;SDS011;17371;51.328;3.860;2023-06-19T08:27:20;14.77;;;7.33;;
30605;SDS011;17371;51.328;3.860;2023-06-19T08:29:45;12.80;;;7.22;;
30605;SDS011;17371;51.328;3.860;2023-06-19T08:32:10;17.33;;;7.93;;
30605;SDS011;17371;51.328;3.860;2023-06-19T08:34:36;14.27;;;7.35;;
30605;SDS011;17371;51.328;3.860;2023-06-19T08:37:01;14.33;;;7.57;;
30605;SDS011;17371;51.328;3.860;2023-06-19T08:39:27;14.23;;;7.67;;
30605;SDS011;17371;51.328;3.860;2023-06-19T08:41:52;13.03;;;7.40;;
30605;SDS011;17371;51.328;3.860;2023-06-19T08:44:19;13.63;;;7.82;;
30605;SDS011;17371;51.328;3.860;2023-06-19T08:46:44;12.87;;;7.27;;
30605;SDS011;17371;51.328;3.860;2023-06-19T08:49:10;13.13;;;7.35;;
30605;SDS011;17371;51.328;3.860;2023-06-19T08:51:35;13.77;;;8.17;;
30605;SDS011;17371;51.328;3.860;2023-06-19T08:54:01;13.37;;;8.07;;
30605;SDS011;17371;51.328;3.860;2023-06-19T08:56:27;14.35;;;8.05;;
30605;SDS011;17371;51.328;3.860;2023-06-19T08:58:53;16.40;;;8.30;;
30605;SDS011;17371;51.328;3.860;2023-06-19T09:01:19;15.05;;;8.35;;
30605;SDS011;17371;51.328;3.860;2023-06-19T09:03:45;13.77;;;8.48;;
30605;SDS011;17371;51.328;3.860;2023-06-19T09:06:11;15.32;;;8.80;;
30605;SDS011;17371;51.328;3.860;2023-06-19T09:08:36;18.13;;;8.17;;
30605;SDS011;17371;51.328;3.860;2023-06-19T09:11:02;14.97;;;8.33;;
30605;SDS011;17371;51.328;3.860;2023-06-19T09:13:28;15.55;;;8.80;;
30605;SDS011;17371;51.328;3.860;2023-06-19T09:15:57;13.43;;;8.38;;
30605;SDS011;17371;51.328;3.860;2023-06-19T09:18:24;17.20;;;7.95;;
30605;SDS011;17371;51.328;3.860;2023-06-19T09:20:51;15.75;;;8.32;;
30605;SDS011;17371;51.328;3.860;2023-06-19T09:23:17;15.10;;;7.70;;
30605;SDS011;17371;51.328;3.860;2023-06-19T09:25:44;15.80;;;7.27;;
30605;SDS011;17371;51.328;3.860;2023-06-19T09:28:16;14.00;;;8.52;;
30605;SDS011;17371;51.328;3.860;2023-06-19T09:30:50;14.63;;;8.20;;
30605;SDS011;17371;51.328;3.860;2023-06-19T09:33:16;16.83;;;8.27;;
30605;SDS011;17371;51.328;3.860;2023-06-19T09:35:43;12.97;;;7.40;;
30605;SDS011;17371;51.328;3.860;2023-06-19T09:38:09;13.27;;;7.70;;
30605;SDS011;17371;51.328;3.860;2023-06-19T09:40:34;13.23;;;8.03;;
30605;SDS011;17371;51.328;3.860;2023-06-19T09:43:00;12.00;;;6.97;;
30605;SDS011;17371;51.328;3.860;2023-06-19T09:45:26;13.00;;;8.32;;
30605;SDS011;17371;51.328;3.860;2023-06-19T09:47:54;12.52;;;8.07;;
30605;SDS011;17371;51.328;3.860;2023-06-19T09:50:19;12.30;;;7.37;;
30605;SDS011;17371;51.328;3.860;2023-06-19T09:52:49;15.82;;;7.97;;
30605;SDS011;17371;51.328;3.860;2023-06-19T09:55:14;13.15;;;7.78;;
30605;SDS011;17371;51.328;3.860;2023-06-19T09:57:40;14.63;;;8.23;;
30605;SDS011;17371;51.328;3.860;2023-06-19T10:00:07;14.13;;;8.18;;
30605;SDS011;17371;51.328;3.860;2023-06-19T10:02:34;12.63;;;7.30;;
30605;SDS011;17371;51.328;3.860;2023-06-19T10:05:00;11.50;;;7.27;;
30605;SDS011;17371;51.328;3.860;2023-06-19T10:07:31;14.23;;;7.27;;
30605;SDS011;17371;51.328;3.860;2023-06-19T10:10:00;12.60;;;7.53;;
30605;SDS011;17371;51.328;3.860;2023-06-19T10:12:35;13.20;;;6.97;;
30605;SDS011;17371;51.328;3.860;2023-06-19T10:15:08;15.35;;;7.45;;
30605;SDS011;17371;51.328;3.860;2023-06-19T10:17:38;12.43;;;7.70;;
30605;SDS011;17371;51.328;3.860;2023-06-19T10:20:17;14.00;;;6.60;;
30605;SDS011;17371;51.328;3.860;2023-06-19T10:22:50;14.65;;;7.10;;
30605;SDS011;17371;51.328;3.860;2023-06-19T10:25:20;12.50;;;7.28;;
30605;SDS011;17371;51.328;3.860;2023-06-19T10:27:46;17.48;;;6.70;;
30605;SDS011;17371;51.328;3.860;2023-06-19T10:30:16;12.40;;;6.60;;
30605;SDS011;17371;51.328;3.860;2023-06-19T10:32:41;12.18;;;6.65;;
30605;SDS011;17371;51.328;3.860;2023-06-19T10:35:10;16.10;;;7.77;;
30605;SDS011;17371;51.328;3.860;2023-06-19T10:37:36;12.13;;;7.28;;
30605;SDS011;17371;51.328;3.860;2023-06-19T10:40:01;10.57;;;6.57;;
30605;SDS011;17371;51.328;3.860;2023-06-19T10:42:28;13.30;;;7.50;;
30605;SDS011;17371;51.328;3.860;2023-06-19T10:44:58;12.82;;;7.30;;
30605;SDS011;17371;51.328;3.860;2023-06-19T10:47:26;11.88;;;6.43;;
30605;SDS011;17371;51.328;3.860;2023-06-19T10:49:52;13.20;;;7.10;;
30605;SDS011;17371;51.328;3.860;2023-06-19T10:52:18;10.67;;;6.20;;
30605;SDS011;17371;51.328;3.860;2023-06-19T10:54:43;11.40;;;6.22;;
30605;SDS011;17371;51.328;3.860;2023-06-19T10:57:09;9.30;;;5.47;;
30605;SDS011;17371;51.328;3.860;2023-06-19T10:59:35;9.80;;;6.53;;
30605;SDS011;17371;51.328;3.860;2023-06-19T11:02:01;9.73;;;6.30;;
30605;SDS011;17371;51.328;3.860;2023-06-19T11:04:26;10.27;;;6.00;;
30605;SDS011;17371;51.328;3.860;2023-06-19T11:06:52;10.98;;;7.05;;
30605;SDS011;17371;51.328;3.860;2023-06-19T11:09:17;10.07;;;6.60;;
30605;SDS011;17371;51.328;3.860;2023-06-19T11:11:43;10.40;;;5.80;;
30605;SDS011;17371;51.328;3.860;2023-06-19T11:14:10;11.25;;;5.75;;
30605;SDS011;17371;51.328;3.860;2023-06-19T11:16:38;12.23;;;6.25;;
30605;SDS011;17371;51.328;3.860;2023-06-19T11:19:05;12.37;;;6.20;;
30605;SDS011;17371;51.328;3.860;2023-06-19T11:21:31;11.95;;;6.47;;
30605;SDS011;17371;51.328;3.860;2023-06-19T11:23:57;9.38;;;6.13;;
30605;SDS011;17371;51.328;3.860;2023-06-19T11:26:24;10.93;;;6.53;;
30605;SDS011;17371;51.328;3.860;2023-06-19T11:28:50;10.50;;;5.65;;
30605;SDS011;17371;51.328;3.860;2023-06-19T11:31:15;9.70;;;5.53;;
30605;SDS011;17371;51.328;3.860;2023-06-19T11:33:42;10.32;;;5.95;;
30605;SDS011;17371;51.328;3.860;2023-06-19T11:36:07;9.43;;;5.70;;
30605;SDS011;17371;51.328;3.860;2023-06-19T11:38:33;13.32;;;7.03;;
30605;SDS011;17371;51.328;3.860;2023-06-19T11:41:01;10.50;;;5.97;;
30605;SDS011;17371;51.328;3.860;2023-06-19T11:43:27;10.80;;;5.75;;
30605;SDS011;17371;51.328;3.860;2023-06-19T11:45:53;9.13;;;5.40;;
30605;SDS011;17371;51.328;3.860;2023-06-19T11:48:22;8.60;;;4.72;;
30605;SDS011;17371;51.328;3.860;2023-06-19T11:50:49;9.35;;;5.63;;
30605;SDS011;17371;51.328;3.860;2023-06-19T11:53:15;13.97;;;6.43;;
30605;SDS011;17371;51.328;3.860;2023-06-19T11:55:40;8.50;;;5.53;;
30605;SDS011;17371;51.328;3.860;2023-06-19T11:58:06;8.87;;;5.50;;
30605;SDS011;17371;51.328;3.860;2023-06-19T12:00:31;10.13;;;5.97;;
30605;SDS011;17371;51.328;3.860;2023-06-19T12:02:56;13.80;;;7.40;;
30605;SDS011;17371;51.328;3.860;2023-06-19T12:05:22;11.10;;;5.80;;
30605;SDS011;17371;51.328;3.860;2023-06-19T12:07:49;8.88;;;5.90;;
30605;SDS011;17371;51.328;3.860;2023-06-19T12:10:14;11.90;;;6.80;;
30605;SDS011;17371;51.328;3.860;2023-06-19T12:12:40;8.40;;;5.80;;
30605;SDS011;17371;51.328;3.860;2023-06-19T12:15:05;9.53;;;5.63;;
30605;SDS011;17371;51.328;3.860;2023-06-19T12:17:31;9.40;;;5.65;;
30605;SDS011;17371;51.328;3.860;2023-06-19T12:19:56;11.97;;;6.00;;
30605;SDS011;17371;51.328;3.860;2023-06-19T12:22:22;8.47;;;5.23;;
30605;SDS011;17371;51.328;3.860;2023-06-19T12:24:48;10.10;;;6.37;;
30605;SDS011;17371;51.328;3.860;2023-06-19T12:27:14;11.05;;;6.10;;
30605;SDS011;17371;51.328;3.860;2023-06-19T12:29:39;7.70;;;5.40;;
30605;SDS011;17371;51.328;3.860;2023-06-19T12:32:05;9.43;;;6.30;;
30605;SDS011;17371;51.328;3.860;2023-06-19T12:34:31;9.95;;;6.47;;
30605;SDS011;17371;51.328;3.860;2023-06-19T12:36:57;10.23;;;5.60;;
30605;SDS011;17371;51.328;3.860;2023-06-19T12:39:22;9.93;;;5.03;;
30605;SDS011;17371;51.328;3.860;2023-06-19T12:41:49;9.40;;;5.57;;
30605;SDS011;17371;51.328;3.860;2023-06-19T12:44:14;10.05;;;5.80;;
30605;SDS011;17371;51.328;3.860;2023-06-19T12:46:39;8.93;;;5.03;;
30605;SDS011;17371;51.328;3.860;2023-06-19T12:49:06;7.03;;;4.30;;
30605;SDS011;17371;51.328;3.860;2023-06-19T12:51:31;7.88;;;4.53;;
30605;SDS011;17371;51.328;3.860;2023-06-19T12:53:56;7.83;;;4.40;;
30605;SDS011;17371;51.328;3.860;2023-06-19T12:56:22;7.90;;;4.50;;
30605;SDS011;17371;51.328;3.860;2023-06-19T12:58:49;6.53;;;4.20;;
30605;SDS011;17371;51.328;3.860;2023-06-19T13:01:14;6.37;;;4.03;;
30605;SDS011;17371;51.328;3.860;2023-06-19T13:03:39;7.30;;;4.20;;
30605;SDS011;17371;51.328;3.860;2023-06-19T13:06:05;7.27;;;3.67;;
30605;SDS011;17371;51.328;3.860;2023-06-19T13:08:30;7.80;;;3.70;;
30605;SDS011;17371;51.328;3.860;2023-06-19T13:10:56;6.70;;;4.20;;
30605;SDS011;17371;51.328;3.860;2023-06-19T13:13:21;5.27;;;3.70;;
30605;SDS011;17371;51.328;3.860;2023-06-19T13:15:48;9.38;;;4.53;;
30605;SDS011;17371;51.328;3.860;2023-06-19T13:18:13;6.93;;;4.00;;
30605;SDS011;17371;51.328;3.860;2023-06-19T13:20:38;6.80;;;4.00;;
30605;SDS011;17371;51.328;3.860;2023-06-19T13:23:04;6.68;;;4.47;;
30605;SDS011;17371;51.328;3.860;2023-06-19T13:25:29;9.77;;;3.87;;
30605;SDS011;17371;51.328;3.860;2023-06-19T13:27:55;7.23;;;4.30;;
30605;SDS011;17371;51.328;3.860;2023-06-19T13:30:20;6.20;;;3.97;;
30605;SDS011;17371;51.328;3.860;2023-06-19T13:32:47;8.98;;;3.60;;
30605;SDS011;17371;51.328;3.860;2023-06-19T13:35:12;6.80;;;3.70;;
30605;SDS011;17371;51.328;3.860;2023-06-19T13:37:37;6.50;;;3.90;;
30605;SDS011;17371;51.328;3.860;2023-06-19T13:40:03;8.23;;;3.80;;
30605;SDS011;17371;51.328;3.860;2023-06-19T13:42:29;6.78;;;3.40;;
30605;SDS011;17371;51.328;3.860;2023-06-19T13:44:55;9.10;;;3.90;;
30605;SDS011;17371;51.328;3.860;2023-06-19T13:47:20;6.67;;;4.20;;
30605;SDS011;17371;51.328;3.860;2023-06-19T13:49:47;7.47;;;4.10;;
30605;SDS011;17371;51.328;3.860;2023-06-19T13:52:12;9.70;;;4.57;;
30605;SDS011;17371;51.328;3.860;2023-06-19T13:54:38;7.20;;;4.03;;
30605;SDS011;17371;51.328;3.860;2023-06-19T13:57:03;8.33;;;4.60;;
30605;SDS011;17371;51.328;3.860;2023-06-19T13:59:29;9.18;;;5.03;;
30605;SDS011;17371;51.328;3.860;2023-06-19T14:01:54;8.70;;;5.17;;
30605;SDS011;17371;51.328;3.860;2023-06-19T14:04:20;13.30;;;4.57;;
30605;SDS011;17371;51.328;3.860;2023-06-19T14:06:47;6.53;;;3.80;;
30605;SDS011;17371;51.328;3.860;2023-06-19T14:09:12;8.70;;;4.20;;
30605;SDS011;17371;51.328;3.860;2023-06-19T14:11:38;7.17;;;4.20;;
30605;SDS011;17371;51.328;3.860;2023-06-19T14:14:03;9.97;;;5.10;;
30605;SDS011;17371;51.328;3.860;2023-06-19T14:16:28;6.93;;;4.47;;
30605;SDS011;17371;51.328;3.860;2023-06-19T14:18:54;7.63;;;4.50;;
30605;SDS011;17371;51.328;3.860;2023-06-19T14:21:19;7.65;;;3.92;;
30605;SDS011;17371;51.328;3.860;2023-06-19T14:23:46;5.83;;;3.10;;
30605;SDS011;17371;51.328;3.860;2023-06-19T14:26:11;6.78;;;3.58;;
30605;SDS011;17371;51.328;3.860;2023-06-19T14:28:37;5.10;;;3.03;;
30605;SDS011;17371;51.328;3.860;2023-06-19T14:31:02;4.55;;;2.95;;